createdAt,value
2019-04-05T00:00:15.727Z,20.70
2019-04-05T00:03:01.367Z,21.10
2019-04-05T00:05:48.329Z,21.55
2019-04-05T00:08:33.824Z,22.13
2019-04-05T00:11:19.408Z,21.93
2019-04-05T00:14:05.830Z,22.00
2019-04-05T00:16:53.349Z,22.60
2019-04-05T00:19:38.688Z,21.30
2019-04-05T00:22:24.531Z,21.57
2019-04-05T00:25:09.587Z,21.10
2019-04-05T00:27:54.963Z,22.30
2019-04-05T00:30:40.059Z,22.87
2019-04-05T00:33:25.573Z,20.90
2019-04-05T00:36:10.608Z,22.48
2019-04-05T00:38:56.021Z,21.87
2019-04-05T00:41:41.525Z,22.52
2019-04-05T00:44:26.941Z,21.20
2019-04-05T00:47:12.337Z,21.50
2019-04-05T00:49:57.669Z,20.85
2019-04-05T00:52:42.975Z,21.30
2019-04-05T00:55:28.517Z,21.20
2019-04-05T00:58:13.746Z,21.23
2019-04-05T01:00:59.128Z,21.40
2019-04-05T01:03:44.368Z,20.55
2019-04-05T01:06:29.999Z,20.72
2019-04-05T01:09:15.312Z,21.30
2019-04-05T01:12:00.828Z,21.20
2019-04-05T01:14:45.980Z,20.68
2019-04-05T01:17:32.344Z,21.52
2019-04-05T01:20:17.559Z,20.92
2019-04-05T01:23:02.991Z,21.02
2019-04-05T01:25:48.331Z,20.65
2019-04-05T01:28:33.840Z,21.95
2019-04-05T01:31:19.133Z,20.82
2019-04-05T01:34:05.682Z,20.97
2019-04-05T01:36:51.278Z,22.25
2019-04-05T01:39:37.782Z,20.30
2019-04-05T01:42:22.997Z,21.80
2019-04-05T01:45:08.133Z,20.92
2019-04-05T01:47:53.663Z,21.17
2019-04-05T01:50:39.027Z,21.65
2019-04-05T01:53:24.162Z,21.37
2019-04-05T01:56:09.409Z,22.22
2019-04-05T01:58:54.847Z,20.52
2019-04-05T02:01:40.227Z,20.32
2019-04-05T02:04:25.551Z,20.68
2019-04-05T02:07:10.870Z,21.55
2019-04-05T02:09:56.273Z,20.50
2019-04-05T02:12:41.688Z,21.90
2019-04-05T02:15:27.509Z,21.42
2019-04-05T02:18:12.689Z,21.02
2019-04-05T02:20:57.921Z,21.45
2019-04-05T02:23:43.347Z,21.48
2019-04-05T02:26:28.549Z,21.27
2019-04-05T02:29:14.081Z,21.30
2019-04-05T02:31:59.396Z,22.22
2019-04-05T02:34:44.789Z,22.70
2019-04-05T02:37:29.946Z,22.50
2019-04-05T02:40:15.251Z,22.37
2019-04-05T02:43:00.653Z,22.20
2019-04-05T02:45:45.968Z,24.30
2019-04-05T02:48:32.321Z,23.15
2019-04-05T02:51:19.634Z,24.57
2019-04-05T02:54:04.927Z,23.67
2019-04-05T02:56:50.384Z,25.52
2019-04-05T02:59:36.659Z,23.92
2019-04-05T03:02:22.111Z,24.05
2019-04-05T03:05:07.066Z,25.05
2019-04-05T03:07:52.173Z,24.75
2019-04-05T03:10:53.966Z,24.25
2019-04-05T03:13:41.264Z,25.10
2019-04-05T03:16:39.970Z,25.32
2019-04-05T03:19:17.955Z,25.50
2019-04-05T03:22:04.553Z,25.43
2019-04-05T03:24:52.491Z,25.72
2019-04-05T03:27:37.743Z,25.25
2019-04-05T03:30:23.180Z,25.75
2019-04-05T03:33:08.369Z,26.25
2019-04-05T03:35:53.891Z,26.00
2019-04-05T03:38:38.541Z,25.92
2019-04-05T03:41:23.338Z,26.10
2019-04-05T03:44:08.056Z,26.25
2019-04-05T03:46:57.055Z,26.65
2019-04-05T03:49:40.309Z,28.12
2019-04-05T03:52:25.134Z,26.95
2019-04-05T03:55:10.541Z,26.40
2019-04-05T03:57:55.246Z,26.30
2019-04-05T04:00:41.048Z,26.07
2019-04-05T04:03:25.876Z,26.50
2019-04-05T04:06:11.226Z,26.15
2019-04-05T04:08:56.671Z,27.93
2019-04-05T04:11:42.354Z,26.65
2019-04-05T04:14:27.405Z,26.10
2019-04-05T04:17:13.679Z,26.35
2019-04-05T04:19:58.903Z,27.10
2019-04-05T04:22:44.233Z,26.27
2019-04-05T04:25:28.937Z,25.82
2019-04-05T04:28:14.404Z,25.82
2019-04-05T04:30:59.640Z,26.25
2019-04-05T04:33:44.972Z,26.57
2019-04-05T04:36:29.796Z,25.75
2019-04-05T04:39:14.632Z,27.00
2019-04-05T04:42:00.034Z,26.10
2019-04-05T04:44:44.818Z,25.43
2019-04-05T04:47:30.004Z,25.05
2019-04-05T04:50:15.440Z,25.20
2019-04-05T04:53:00.468Z,25.90
2019-04-05T04:55:45.284Z,27.40
2019-04-05T04:58:30.495Z,25.17
2019-04-05T05:01:15.275Z,25.23
2019-04-05T05:04:00.232Z,25.35
2019-04-05T05:06:45.691Z,25.60
2019-04-05T05:09:30.960Z,25.75
2019-04-05T05:12:16.116Z,24.85
2019-04-05T05:15:01.273Z,25.43
2019-04-05T05:17:57.938Z,24.57
2019-04-05T05:20:34.145Z,23.05
2019-04-05T05:23:19.363Z,24.43
2019-04-05T05:26:06.210Z,23.32
2019-04-05T05:28:51.535Z,24.37
2019-04-05T05:31:36.767Z,25.32
2019-04-05T05:34:21.904Z,24.30
2019-04-05T05:37:06.966Z,24.52
2019-04-05T05:39:52.080Z,25.12
2019-04-05T05:42:38.478Z,23.75
2019-04-05T05:45:23.776Z,24.45
2019-04-05T05:48:08.806Z,25.27
2019-04-05T05:50:53.680Z,25.00
2019-04-05T05:53:38.753Z,23.70
2019-04-05T05:56:24.272Z,24.55
2019-04-05T05:59:09.550Z,24.18
2019-04-05T06:01:54.595Z,24.57
2019-04-05T06:04:39.651Z,24.25
2019-04-05T06:07:24.874Z,23.60
2019-04-05T06:10:09.632Z,24.35
2019-04-05T06:12:54.996Z,24.02
2019-04-05T06:15:39.949Z,23.70
2019-04-05T06:18:24.886Z,23.45
2019-04-05T06:21:10.134Z,23.95
2019-04-05T06:23:54.906Z,24.18
2019-04-05T06:26:39.669Z,25.17
2019-04-05T06:29:25.899Z,24.35
2019-04-05T06:32:11.391Z,24.02
2019-04-05T06:34:56.021Z,24.60
2019-04-05T06:37:40.921Z,23.98
2019-04-05T06:40:25.571Z,23.85
2019-04-05T06:43:10.394Z,23.83
2019-04-05T06:45:55.853Z,22.90
2019-04-05T06:48:41.444Z,23.92
2019-04-05T06:51:26.872Z,23.02
2019-04-05T06:54:12.200Z,22.60
2019-04-05T06:56:57.322Z,23.20
2019-04-05T06:59:42.518Z,21.50
2019-04-05T07:02:27.729Z,22.15
2019-04-05T07:05:12.764Z,21.20
2019-04-05T07:07:57.803Z,21.60
2019-04-05T07:10:45.216Z,21.33
2019-04-05T07:13:30.282Z,20.68
2019-04-05T07:16:15.476Z,20.23
2019-04-05T07:19:00.744Z,19.87
2019-04-05T07:21:46.034Z,18.90
2019-04-05T07:24:31.543Z,19.92
2019-04-05T07:27:16.359Z,18.87
2019-04-05T07:30:02.989Z,18.70
2019-04-05T07:32:50.730Z,18.50
2019-04-05T07:35:35.470Z,17.87
2019-04-05T07:38:20.511Z,17.07
2019-04-05T07:41:05.709Z,18.30
2019-04-05T07:43:50.607Z,17.73
2019-04-05T07:46:35.272Z,16.82
2019-04-05T07:49:20.401Z,16.50
2019-04-05T07:52:05.444Z,16.05
2019-04-05T07:54:51.268Z,15.35
2019-04-05T07:57:37.573Z,16.02
2019-04-05T08:00:46.801Z,14.68
2019-04-05T08:03:31.968Z,14.98
2019-04-05T08:06:17.112Z,14.83
2019-04-05T08:09:08.582Z,14.30
2019-04-05T08:11:53.919Z,13.78
2019-04-05T08:14:38.778Z,13.38
2019-04-05T08:17:24.065Z,13.22
2019-04-05T08:20:08.871Z,12.53
2019-04-05T08:22:54.250Z,12.85
2019-04-05T08:25:41.184Z,12.43
2019-04-05T08:28:29.504Z,11.08
2019-04-05T08:31:14.717Z,10.30
2019-04-05T08:34:00.045Z,10.20
2019-04-05T08:36:46.562Z,9.80
2019-04-05T08:39:31.710Z,10.38
2019-04-05T08:42:17.397Z,9.03
2019-04-05T08:45:06.643Z,9.85
2019-04-05T08:47:51.860Z,9.08
2019-04-05T08:50:38.183Z,10.70
2019-04-05T08:53:23.329Z,10.88
2019-04-05T08:56:08.348Z,10.65
2019-04-05T08:58:53.377Z,10.80
2019-04-05T09:01:38.375Z,10.20
2019-04-05T09:04:24.863Z,10.55
2019-04-05T09:07:10.046Z,9.38
2019-04-05T09:09:55.157Z,9.18
2019-04-05T09:12:40.627Z,8.50
2019-04-05T09:15:25.925Z,8.13
2019-04-05T09:18:10.900Z,7.85
2019-04-05T09:20:56.166Z,7.95
2019-04-05T09:23:41.100Z,7.95
2019-04-05T09:26:26.101Z,8.03
2019-04-05T09:29:11.103Z,6.62
2019-04-05T09:31:56.027Z,6.97
2019-04-05T09:34:41.369Z,6.62
2019-04-05T09:37:26.485Z,6.65
2019-04-05T09:40:12.161Z,6.95
2019-04-05T09:42:57.002Z,7.45
2019-04-05T09:45:41.938Z,7.35
2019-04-05T09:48:27.201Z,7.00
2019-04-05T09:51:12.376Z,7.00
2019-04-05T09:53:57.705Z,8.25
2019-04-05T09:56:45.530Z,8.68
2019-04-05T09:59:30.470Z,7.55
2019-04-05T10:02:15.695Z,6.25
2019-04-05T10:05:01.092Z,6.28
2019-04-05T10:07:54.647Z,6.60
2019-04-05T10:10:33.325Z,6.78
2019-04-05T10:13:18.790Z,7.20
2019-04-05T10:16:03.525Z,6.25
2019-04-05T10:18:51.422Z,6.20
2019-04-05T10:21:36.022Z,5.05
2019-04-05T10:24:21.083Z,5.95
2019-04-05T10:27:06.164Z,5.37
2019-04-05T10:29:52.345Z,5.90
2019-04-05T10:32:37.181Z,5.12
2019-04-05T10:35:22.673Z,4.33
2019-04-05T10:38:07.663Z,5.33
2019-04-05T10:40:52.674Z,4.30
2019-04-05T10:43:37.904Z,4.95
2019-04-05T10:46:23.005Z,5.78
2019-04-05T10:49:08.289Z,6.12
2019-04-05T10:51:53.649Z,3.70
2019-04-05T10:54:38.843Z,3.72
2019-04-05T10:57:23.692Z,3.30
2019-04-05T11:00:10.605Z,3.77
2019-04-05T11:02:55.804Z,3.70
2019-04-05T11:05:40.576Z,4.58
2019-04-05T11:08:25.729Z,4.83
2019-04-05T11:11:10.652Z,4.58
2019-04-05T11:13:55.986Z,4.35
2019-04-05T11:16:41.092Z,5.60
2019-04-05T11:19:25.946Z,4.58
2019-04-05T11:22:10.937Z,4.25
2019-04-05T11:24:56.290Z,4.80
2019-04-05T11:27:41.048Z,4.65
2019-04-05T11:30:40.956Z,4.80
2019-04-05T11:33:25.804Z,4.55
2019-04-05T11:36:11.612Z,5.10
2019-04-05T11:38:57.867Z,4.70
2019-04-05T11:41:42.780Z,3.60
2019-04-05T11:44:27.896Z,4.15
2019-04-05T11:47:13.294Z,4.40
2019-04-05T11:49:58.183Z,3.70
2019-04-05T11:52:43.009Z,3.80
2019-04-05T11:55:28.491Z,4.33
2019-04-05T11:58:13.756Z,4.05
2019-04-05T12:01:06.457Z,3.92
2019-04-05T12:03:54.335Z,4.40
2019-04-05T12:06:39.557Z,4.65
2019-04-05T12:09:24.929Z,4.25
2019-04-05T12:12:09.708Z,4.97
2019-04-05T12:14:54.906Z,5.12
2019-04-05T12:17:40.111Z,5.12
2019-04-05T12:20:25.421Z,5.40
2019-04-05T12:23:10.528Z,5.42
2019-04-05T12:25:55.643Z,5.17
2019-04-05T12:28:40.595Z,6.37
2019-04-05T12:31:26.234Z,6.25
2019-04-05T12:34:11.572Z,6.08
2019-04-05T12:36:56.942Z,5.97
2019-04-05T12:40:27.729Z,6.30
2019-04-05T12:47:03.654Z,8.15
2019-04-05T12:53:19.619Z,8.20
2019-04-05T12:56:05.438Z,7.60
2019-04-05T12:59:25.168Z,9.20
2019-04-05T13:06:17.130Z,10.50
2019-04-05T13:09:45.643Z,9.13
2019-04-05T13:13:05.064Z,9.98
2019-04-05T13:16:09.894Z,9.28
2019-04-05T13:22:32.127Z,8.23
2019-04-05T13:29:25.960Z,8.58
2019-04-05T13:36:19.374Z,8.10
2019-04-05T13:39:21.204Z,8.20
2019-04-05T13:42:08.424Z,7.47
2019-04-05T13:44:53.210Z,7.45
2019-04-05T13:47:39.166Z,7.40
2019-04-05T13:50:24.347Z,7.78
2019-04-05T13:53:11.098Z,7.45
2019-04-05T13:55:56.558Z,6.97
2019-04-05T13:58:41.554Z,6.33
2019-04-05T14:01:26.387Z,6.60
2019-04-05T14:04:11.454Z,6.37
2019-04-05T14:06:56.417Z,5.97
2019-04-05T14:09:41.376Z,5.45
2019-04-05T14:12:26.627Z,6.22
2019-04-05T14:15:12.207Z,5.67
2019-04-05T14:17:57.486Z,5.62
2019-04-05T14:20:42.352Z,5.47
2019-04-05T14:23:27.167Z,5.35
2019-04-05T14:26:12.182Z,5.40
2019-04-05T14:28:57.967Z,4.95
2019-04-05T14:31:43.293Z,4.45
2019-04-05T14:34:28.212Z,4.65
2019-04-05T14:37:13.446Z,4.50
2019-04-05T14:39:58.503Z,4.35
2019-04-05T14:42:44.885Z,3.70
2019-04-05T14:45:30.656Z,4.03
2019-04-05T14:48:15.561Z,3.98
2019-04-05T14:51:00.789Z,3.52
2019-04-05T14:53:47.059Z,3.35
2019-04-05T14:56:32.740Z,3.40
2019-04-05T14:59:17.551Z,3.95
2019-04-05T15:02:03.443Z,3.75
2019-04-05T15:04:49.484Z,3.72
2019-04-05T15:07:37.515Z,3.45
2019-04-05T15:10:24.876Z,4.10
2019-04-05T15:13:08.786Z,3.40
2019-04-05T15:15:55.867Z,3.77
2019-04-05T15:18:43.079Z,3.83
2019-04-05T15:21:28.047Z,4.15
2019-04-05T15:24:15.838Z,4.17
2019-04-05T15:27:00.192Z,3.95
2019-04-05T15:29:45.039Z,3.72
2019-04-05T15:32:32.005Z,3.45
2019-04-05T15:35:17.070Z,3.62
2019-04-05T15:38:02.265Z,3.67
2019-04-05T15:40:49.496Z,3.75
2019-04-05T15:43:34.177Z,3.80
2019-04-05T15:46:20.602Z,4.00
2019-04-05T15:49:06.205Z,4.15
2019-04-05T15:51:54.499Z,4.28
2019-04-05T15:54:38.773Z,4.65
2019-04-05T15:57:24.153Z,4.20
2019-04-05T16:00:13.904Z,3.67
2019-04-05T16:03:00.419Z,4.45
2019-04-05T16:05:45.897Z,3.77
2019-04-05T16:08:30.687Z,4.55
2019-04-05T16:11:15.499Z,3.90
2019-04-05T16:14:00.617Z,3.67
2019-04-05T16:16:46.141Z,3.37
2019-04-05T16:19:31.064Z,3.75
2019-04-05T16:22:16.338Z,3.95
2019-04-05T16:25:03.695Z,4.10
2019-04-05T16:27:49.216Z,3.58
2019-04-05T16:30:34.117Z,3.52
2019-04-05T16:33:18.930Z,3.62
2019-04-05T16:36:04.116Z,3.47
2019-04-05T16:38:49.647Z,4.00
2019-04-05T16:41:34.486Z,3.40
2019-04-05T16:44:19.231Z,3.45
2019-04-05T16:47:04.584Z,3.90
2019-04-05T16:49:50.545Z,3.20
2019-04-05T16:52:44.837Z,3.62
2019-04-05T16:55:23.346Z,3.40
2019-04-05T16:58:08.347Z,3.27
2019-04-05T17:00:53.387Z,3.70
2019-04-05T17:03:38.453Z,3.27
2019-04-05T17:06:23.247Z,3.05
2019-04-05T17:09:08.811Z,3.33
2019-04-05T17:11:54.001Z,3.50
2019-04-05T17:14:39.217Z,3.37
2019-04-05T17:17:24.184Z,3.42
2019-04-05T17:20:10.177Z,3.90
2019-04-05T17:22:58.412Z,2.70
2019-04-05T17:25:42.065Z,3.12
2019-04-05T17:28:27.132Z,3.45
2019-04-05T17:31:13.994Z,3.10
2019-04-05T17:33:59.204Z,3.67
2019-04-05T17:36:45.525Z,3.30
2019-04-05T17:39:30.494Z,3.00
2019-04-05T17:42:15.853Z,3.20
2019-04-05T17:45:00.630Z,3.20
2019-04-05T17:47:46.061Z,3.30
2019-04-05T17:50:32.098Z,3.50
2019-04-05T17:53:17.369Z,3.12
2019-04-05T17:56:02.480Z,3.62
2019-04-05T17:58:47.846Z,3.27
2019-04-05T18:01:32.888Z,3.87
2019-04-05T18:04:18.167Z,3.58
2019-04-05T18:07:03.550Z,3.40
2019-04-05T18:09:49.216Z,3.20
2019-04-05T18:12:34.377Z,2.90
2019-04-05T18:15:19.134Z,2.72
2019-04-05T18:18:04.119Z,3.27
2019-04-05T18:20:50.370Z,3.70
2019-04-05T18:23:35.787Z,3.70
2019-04-05T18:26:21.135Z,3.15
2019-04-05T18:29:06.064Z,3.58
2019-04-05T18:31:51.073Z,3.02
2019-04-05T18:34:35.827Z,3.62
2019-04-05T18:37:20.677Z,3.17
2019-04-05T18:40:06.053Z,3.67
2019-04-05T18:42:51.427Z,3.30
2019-04-05T18:45:36.346Z,3.30
2019-04-05T18:48:21.951Z,3.17
2019-04-05T18:51:06.743Z,3.60
2019-04-05T18:53:51.720Z,3.95
2019-04-05T18:56:36.981Z,3.58
2019-04-05T18:59:21.959Z,3.08
2019-04-05T19:02:07.238Z,3.65
2019-04-05T19:04:52.180Z,2.83
2019-04-05T19:07:36.936Z,3.15
2019-04-05T19:10:21.794Z,3.70
2019-04-05T19:13:07.100Z,3.35
2019-04-05T19:15:52.587Z,3.85
2019-04-05T19:18:37.806Z,3.33
2019-04-05T19:21:23.065Z,4.03
2019-04-05T19:24:09.944Z,4.75
2019-04-05T19:26:54.855Z,5.45
2019-04-05T19:29:39.854Z,4.80
2019-04-05T19:49:07.319Z,5.97
2019-04-05T19:51:52.659Z,6.40
2019-04-05T19:54:37.458Z,6.42
2019-04-05T19:57:22.338Z,6.97
2019-04-05T20:00:07.664Z,6.25
2019-04-05T20:02:52.936Z,6.92
2019-04-05T20:05:37.841Z,6.85
2019-04-05T20:08:23.326Z,7.62
2019-04-05T20:11:08.715Z,6.58
2019-04-05T20:13:53.572Z,6.90
2019-04-05T20:16:40.726Z,7.78
2019-04-05T20:19:27.859Z,7.87
2019-04-05T20:22:13.129Z,7.40
2019-04-05T20:24:59.792Z,7.80
2019-04-05T20:27:44.487Z,8.05
2019-04-05T20:30:29.325Z,7.53
2019-04-05T20:33:14.705Z,7.08
2019-04-05T20:36:00.042Z,7.72
2019-04-05T20:38:45.979Z,8.35
2019-04-05T20:41:30.742Z,7.83
2019-04-05T20:44:15.843Z,6.95
2019-04-05T20:47:00.805Z,6.92
2019-04-05T20:49:46.353Z,7.95
2019-04-05T20:52:31.508Z,7.28
2019-04-05T20:55:16.286Z,6.95
2019-04-05T20:58:01.576Z,6.37
2019-04-05T21:00:46.462Z,6.85
2019-04-05T21:03:31.206Z,6.75
2019-04-05T21:06:17.217Z,7.10
2019-04-05T21:09:05.393Z,7.42
2019-04-05T21:11:51.629Z,6.70
2019-04-05T21:14:36.715Z,6.80
2019-04-05T21:17:21.842Z,7.00
2019-04-05T21:20:06.626Z,6.97
2019-04-05T21:22:51.818Z,6.97
2019-04-05T21:25:37.124Z,6.30
2019-04-05T21:28:23.394Z,6.80
2019-04-05T21:31:08.213Z,6.97
2019-04-05T21:33:53.549Z,6.83
2019-04-05T21:36:39.318Z,6.50
2019-04-05T21:39:27.368Z,6.62
2019-04-05T21:42:12.893Z,5.90
2019-04-05T21:44:58.283Z,6.42
2019-04-05T21:47:43.583Z,6.75
2019-04-05T21:50:28.969Z,6.47
2019-04-05T21:53:15.864Z,6.35
2019-04-05T21:56:01.184Z,7.78
2019-04-05T21:58:46.416Z,6.62
2019-04-05T22:01:31.752Z,6.78
2019-04-05T22:04:17.216Z,7.25
2019-04-05T22:07:02.686Z,7.92
2019-04-05T22:09:48.249Z,8.78
2019-04-05T22:12:45.523Z,8.95
2019-04-05T22:15:30.893Z,9.75
2019-04-05T22:18:16.186Z,9.23
2019-04-05T22:21:03.386Z,9.90
2019-04-05T22:23:50.056Z,10.60
2019-04-05T22:26:36.654Z,11.80
2019-04-05T22:29:21.764Z,11.25
2019-04-05T22:32:08.233Z,11.83
2019-04-05T22:34:53.851Z,12.88
2019-04-05T22:37:40.064Z,12.13
2019-04-05T22:40:26.555Z,12.68
2019-04-05T22:43:11.844Z,13.38
2019-04-05T22:45:57.159Z,13.10
2019-04-05T22:48:42.787Z,14.93
2019-04-05T22:51:27.817Z,13.75
2019-04-05T22:54:13.643Z,13.48
2019-04-05T22:56:59.213Z,14.87
2019-04-05T22:59:44.610Z,15.70
2019-04-05T23:02:30.140Z,16.67
2019-04-05T23:05:16.603Z,16.32
2019-04-05T23:08:01.970Z,18.82
2019-04-05T23:10:47.342Z,16.23
2019-04-05T23:13:32.557Z,17.95
2019-04-05T23:16:18.016Z,16.30
2019-04-05T23:19:06.648Z,18.50
2019-04-05T23:21:51.537Z,16.62
2019-04-05T23:24:37.195Z,17.20
2019-04-05T23:27:23.541Z,18.35
2019-04-05T23:30:08.879Z,17.70
2019-04-05T23:32:54.195Z,16.77
2019-04-05T23:35:39.443Z,18.45
2019-04-05T23:38:25.114Z,19.17
2019-04-05T23:41:10.383Z,18.73
2019-04-05T23:43:57.341Z,18.60
2019-04-05T23:46:42.957Z,18.48
2019-04-05T23:49:28.465Z,18.48
2019-04-05T23:52:13.797Z,18.02
2019-04-05T23:54:58.880Z,18.77
2019-04-05T23:57:44.190Z,20.68
